Aviation Digital Data Service (ADDS)

Output produced by METARs form (1059 UTC 16 February 2019)
found at http://www.aviationweather.gov/metar/data/
 
METAR text: RJOR 161000Z 02014KT 9999 -SHRA FEW010 SCT025 BKN035 05/01 Q1017
Conditions at: RJOR (TOTTORI AIRPORT , JP) observed 1000 UTC 16 February 2019
Temperature: 5.0°C (41°F)
Dewpoint: 1.0°C (34°F) [RH = 75%]
Pressure (altimeter): 30.03 inches Hg (1017.0 mb)
Winds: from the NNE (20 degrees) at 16 MPH (14 knots; 7.2 m/s)
Visibility: 6 or more miles (10+ km)
Ceiling: 3500 feet AGL
Clouds: few clouds at 1000 feet AGL
scattered clouds at 2500 feet AGL
broken clouds at 3500 feet AGL
Weather: -SHRA  (light rain showers)